National Weather Service Raw Text Product

Bulk Download

PIL:
Start UTC Date @0z:
End UTC Date @0z:
949 
FTUS43 KDMX 231736
TAFDSM
TAF
KDSM 231736Z 2318/2418 31018G27KT P6SM FEW025 SCT250
     FM232100 32017G25KT P6SM SCT025 BKN070
     FM232300 34016G24KT P6SM BKN028
     FM240400 36010KT P6SM BKN035
     FM241100 VRB03KT P6SM SKC
     FM241600 19007KT P6SM FEW240=